METAR / TAF
Helsinki-Vantaa
HELSINKI/VANTAA
Metar
EFHK 161650Z VRB02KT 9999 FEW013 OVC075 11/10 Q1020 NOSIG

16:50 UTC

Wind: ° 2kt

Visibility: 9999 m

Sky: FEW 1300 ft

Temp: 11 deg C / 51.8 deg F

Dewpoint: 10 deg C / 50 deg F

Pressure: 1020 hPa

TAF
TAF EFHK 161426Z 1615/1715 31007KT 9999 BKN008 TEMPO 1615/1624 SCT008 BKN015 BECMG 1702/1704 2500 BR BKN003 BECMG 1707/1709 20010KT 6000 NSW BECMG 1709/1711 9999 BKN006 TEMPO 1712/1715 SCT006
Helsinki, Malmi
HELSINKI/MALMI
Turku
TURKU/ABO
Metar
EFTU 161650Z AUTO 03003KT 350V070 9999 SCT015/// OVC070/// 10/08 Q1019

16:50 UTC

Wind: 30° 3kt

Visibility: 9999 m

Sky: SCT 1500 ft

Temp: 10 deg C / 50 deg F

Dewpoint: 8 deg C / 46.4 deg F

Pressure: 1019 hPa

TAF
TAF EFTU 161426Z 1615/1715 35005KT 9999 FEW009 BKN015 TEMPO 1615/1623 BKN009 BECMG 1623/1701 0500 FG VV002 TEMPO 1701/1707 1000 BR BECMG 1707/1709 5000 BR BKN005 BECMG 1709/1711 19010KT 9999
Tampere, Pirkkala
TAMPERE/PIRKKALA
Metar
EFTP 161650Z AUTO 03003KT CAVOK 06/06 Q1020

16:50 UTC

Wind: 30° 3kt

Visibility:

Sky:

Temp: 6 deg C / 42.8 deg F

Dewpoint: 6 deg C / 42.8 deg F

Pressure: 1020 hPa

TAF
TAF EFTP 161426Z 1615/1715 32006KT 9999 BKN020 PROB30 TEMPO 1615/1618 BKN012 BECMG 1618/1620 4000 BR BECMG 1700/1702 2000 BR BKN002 TEMPO 1702/1712 0700 FG TEMPO 1712/1715 7000 NSW BKN005
Maarianhamina
MARIEHAMN/ALAND
Metar
EFMA 161650Z AUTO 36003KT 9999 BKN004 OVC038 09/08 Q1020

16:50 UTC

Wind: 360° 3kt

Visibility: 9999 m

Sky: BKN 400 ft

Temp: 9 deg C / 48.2 deg F

Dewpoint: 8 deg C / 46.4 deg F

Pressure: 1020 hPa

TAF
TAF AMD EFMA 161457Z 1615/1624 01007KT 9999 BKN004 TEMPO 1615/1624 SCT005 BKN025 PROB30 1619/1624 5000 BR
Pori
PORI (MIL/CIV)
Metar
EFPO 161650Z AUTO 30004KT 9999 FEW022/// 06/05 Q1020

16:50 UTC

Wind: 300° 4kt

Visibility: 9999 m

Sky: FEW 2200 ft

Temp: 6 deg C / 42.8 deg F

Dewpoint: 5 deg C / 41 deg F

Pressure: 1020 hPa

TAF
TAF EFPO 161426Z 1615/1622 35003KT CAVOK TEMPO 1618/1622 4000 BR
Vaasa
VAASA
Metar
EFVA 161650Z AUTO 25002KT CAVOK 05/04 Q1019

16:50 UTC

Wind: 250° 2kt

Visibility:

Sky:

Temp: 5 deg C / 41 deg F

Dewpoint: 4 deg C / 39.2 deg F

Pressure: 1019 hPa

TAF
TAF EFVA 161421Z 1615/1715 24005KT CAVOK TEMPO 1621/1703 1500 BR BKN002 BECMG 1703/1705 1500 BR TEMPO 1705/1715 4000 BR BKN004
Kruunupyy
KRUUNUPYY
Metar
EFKK 161650Z AUTO 20003KT CAVOK 04/04 Q1019

16:50 UTC

Wind: 200° 3kt

Visibility:

Sky:

Temp: 4 deg C / 39.2 deg F

Dewpoint: 4 deg C / 39.2 deg F

Pressure: 1019 hPa

TAF
TAF EFKK 161421Z 1615/1623 23003KT CAVOK PROB40 1619/1623 1200 BR BKN002
Jyväskylä, Tikkakoski
JYVASKYLA (MIL/C
Metar
EFJY 161650Z AUTO VRB02KT 3300 BR BKN189 03/03 Q1019

16:50 UTC

Wind: ° 2kt

Visibility: 3300 m

Sky: BKN 18900 ft

Temp: 3 deg C / 37.4 deg F

Dewpoint: 3 deg C / 37.4 deg F

Pressure: 1019 hPa

TAF
TAF AMD EFJY 161538Z 1615/1715 33005KT 9999 FEW020 TEMPO 1615/1624 1200 BR BECMG 1700/1702 0600 FG VV002 TEMPO 1705/1710 6000 -DZ BKN005
Kuopio
KUOPIO (MIL/CIV)
Metar
EFKU 161650Z AUTO VRB02KT CAVOK 06/05 Q1019

16:50 UTC

Wind: ° 2kt

Visibility:

Sky:

Temp: 6 deg C / 42.8 deg F

Dewpoint: 5 deg C / 41 deg F

Pressure: 1019 hPa

TAF
TAF EFKU 161430Z 1615/1715 28007KT 9999 FEW015 BECMG 1621/1623 15003KT 0500 FG VV002 TEMPO 1623/1707 0900 -DZ VV003 BECMG 1707/1709 9999 NSW SCT006 BECMG 1711/1713 BKN005 TEMPO 1712/1715 3000 DZ BKN003
Joensuu
JOENSUU
Metar
EFJO 161650Z AUTO 26003KT CAVOK 07/05 Q1018

16:50 UTC

Wind: 260° 3kt

Visibility:

Sky:

Temp: 7 deg C / 44.6 deg F

Dewpoint: 5 deg C / 41 deg F

Pressure: 1018 hPa

TAF
TAF EFJO 161137Z 1612/1616 27007KT 9999 BKN006 BECMG 1612/1614 FEW007
Halli
HALLI (FIN-AFB)
Metar
EFHA 161650Z AUTO 16003KT CAVOK 05/05 Q1020

16:50 UTC

Wind: 160° 3kt

Visibility:

Sky:

Temp: 5 deg C / 41 deg F

Dewpoint: 5 deg C / 41 deg F

Pressure: 1020 hPa

TAF
TAF EFHA 161127Z 1612/1614 33005KT 9999 BKN015 TEMPO 1612/1614 BKN013
Utti
UTTI (FIN-AFB)
Metar
EFUT 161650Z AUTO 28001KT 0350 FG BKN115 08/08 Q1019

16:50 UTC

Wind: 280° 1kt

Visibility: 350 m

Sky: BKN 11500 ft

Temp: 8 deg C / 46.4 deg F

Dewpoint: 8 deg C / 46.4 deg F

Pressure: 1019 hPa

Mikkeli
MIKKELI
Metar
EFMI 161650Z AUTO 00000KT CAVOK 05/05 Q1019

16:50 UTC

Wind: 0° 0kt

Visibility:

Sky:

Temp: 5 deg C / 41 deg F

Dewpoint: 5 deg C / 41 deg F

Pressure: 1019 hPa

Savonlinna
SAVONLINNA (AUT)
Metar
EFSA 161650Z AUTO 29002KT 9999 FEW019 06/05 Q1019

16:50 UTC

Wind: 290° 2kt

Visibility: 9999 m

Sky: FEW 1900 ft

Temp: 6 deg C / 42.8 deg F

Dewpoint: 5 deg C / 41 deg F

Pressure: 1019 hPa

TAF
TAF EFSA 161430Z 1615/1619 28005KT 9999 OVC030
Lappeenranta
LAPPEENRANTA
Metar
EFLP 161650Z AUTO 25002KT 0100 R06/0250V0675D R24/0150VP1500D BCFG FEW034 08/08 Q1019

16:50 UTC

Wind: 250° 2kt

Visibility: 100 m

Sky: FEW 3400 ft

Temp: 8 deg C / 46.4 deg F

Dewpoint: 8 deg C / 46.4 deg F

Pressure: 1019 hPa

Oulu
OULU/ULEABORG
Metar
EFOU 161650Z AUTO 23006KT CAVOK 06/05 Q1017

16:50 UTC

Wind: 230° 6kt

Visibility:

Sky:

Temp: 6 deg C / 42.8 deg F

Dewpoint: 5 deg C / 41 deg F

Pressure: 1017 hPa

TAF
TAF EFOU 161421Z 1615/1715 27008KT CAVOK TEMPO 1622/1706 4000 BR BKN001
Kemi
KEMI
Metar
EFKE 161650Z 11001KT CAVOK 01/M00 Q1016

16:50 UTC

Wind: 110° 1kt

Visibility:

Sky:

Temp: 1 deg C / 33.8 deg F

Dewpoint: 0 deg C / 32 deg F

Pressure: 1016 hPa

TAF
TAF EFKE 161421Z 1615/1624 22005KT CAVOK
Rovaniemi
ROVANIEMI (CIV/M
Metar
EFRO 161650Z AUTO 23010KT CAVOK 03/00 Q1014

16:50 UTC

Wind: 230° 10kt

Visibility:

Sky:

Temp: 3 deg C / 37.4 deg F

Dewpoint: 0 deg C / 32 deg F

Pressure: 1014 hPa

TAF
TAF EFRO 161421Z 1615/1715 22007KT CAVOK TEMPO 1702/1713 0800 FG VV001 BECMG 1713/1715 18010KT 9999 BKN003
Enontekiö
ENONTEKIO
Metar
EFET 161650Z AUTO 26005KT CAVOK 03/M00 Q1012

16:50 UTC

Wind: 260° 5kt

Visibility:

Sky:

Temp: 3 deg C / 37.4 deg F

Dewpoint: 0 deg C / 32 deg F

Pressure: 1012 hPa

Ivalo
IVALO
Metar
EFIV 161650Z AUTO 26005KT 220V350 CAVOK 03/00 Q1010

16:50 UTC

Wind: 260° 5kt

Visibility:

Sky:

Temp: 3 deg C / 37.4 deg F

Dewpoint: 0 deg C / 32 deg F

Pressure: 1010 hPa

Kittilä
KITTILA
Metar
EFKT 161650Z AUTO VRB02KT CAVOK 01/M01 Q1012

16:50 UTC

Wind: ° 2kt

Visibility:

Sky:

Temp: 1 deg C / 33.8 deg F

Dewpoint: -1 deg C / 30.2 deg F

Pressure: 1012 hPa

Kuusamo
KUUSAMO
Metar
EFKS 161650Z AUTO 28004KT 220V330 9999 FEW006 03/03 Q1014

16:50 UTC

Wind: 280° 4kt

Visibility: 9999 m

Sky: FEW 600 ft

Temp: 3 deg C / 37.4 deg F

Dewpoint: 3 deg C / 37.4 deg F

Pressure: 1014 hPa

Kajaani
KAJAANI
Metar
EFKI 161650Z AUTO 20004KT CAVOK 03/03 Q1017

16:50 UTC

Wind: 200° 4kt

Visibility:

Sky:

Temp: 3 deg C / 37.4 deg F

Dewpoint: 3 deg C / 37.4 deg F

Pressure: 1017 hPa

TAF
TAF EFKI 161430Z 1615/1621 28006KT CAVOK BECMG 1617/1619 3000 BR OVC005 PROB40 1619/1621 0900 FG VV003
Varkaus
VARKAUS
Seinäjoki
SEINAJOKI-ILMAJO
Metar
EFSI 161650Z AUTO 19001KT 3900 BR SKC 02/01 Q1020

16:50 UTC

Wind: 190° 1kt

Visibility: 3900 m

Sky:

Temp: 2 deg C / 35.6 deg F

Dewpoint: 1 deg C / 33.8 deg F

Pressure: 1020 hPa

Print Friendly, PDF & Email